Time;durP1;ratioP1;P1;durP2;ratioP2;P2;SDS_P1;SDS_P2;PMS_P1;PMS_P2;Temp;Humidity;BMP_temperature;BMP_pressure;BME280_temperature;BME280_humidity;BME280_pressure;Samples;Min_cycle;Max_cycle;Signal;HPM_P1;HPM_P2
2022/05/21 00:00:27;;;;;;;11.65;5.50;;;19.90;99.90;;;;;;5096650;28;20458;-73
2022/05/21 00:02:53;;;;;;;17.35;5.25;;;19.90;99.90;;;;;;5095280;28;20028;-73
2022/05/21 00:05:21;;;;;;;10.88;5.18;;;19.90;99.90;;;;;;5095149;28;20057;-73
2022/05/21 00:07:47;;;;;;;15.32;5.25;;;19.80;99.90;;;;;;5100186;28;20032;-73
2022/05/21 00:10:16;;;;;;;12.70;4.50;;;19.80;99.90;;;;;;5100688;28;20024;-74
2022/05/21 00:12:43;;;;;;;12.60;4.78;;;19.80;99.90;;;;;;5099002;28;20031;-73
2022/05/21 00:15:12;;;;;;;11.77;5.50;;;19.80;99.90;;;;;;5096825;28;20013;-73
2022/05/21 00:17:38;;;;;;;11.60;5.55;;;19.80;99.90;;;;;;5096160;28;20074;-73
2022/05/21 00:20:07;;;;;;;20.15;5.35;;;19.70;99.90;;;;;;5100082;28;20024;-73
2022/05/21 00:22:33;;;;;;;11.77;5.38;;;19.70;99.90;;;;;;5100330;28;20438;-74
2022/05/21 00:24:58;;;;;;;19.40;5.32;;;19.70;99.90;;;;;;5100204;28;20020;-74
2022/05/21 00:27:24;;;;;;;16.88;6.20;;;19.70;99.90;;;;;;5098710;28;20034;-73
2022/05/21 00:29:50;;;;;;;10.25;5.13;;;19.60;99.90;;;;;;5098812;28;20016;-74
2022/05/21 00:32:16;;;;;;;13.07;6.25;;;19.60;99.90;;;;;;5094445;28;20452;-74
2022/05/21 00:34:42;;;;;;;11.95;5.47;;;19.50;99.90;;;;;;5098656;28;20027;-73
2022/05/21 00:37:08;;;;;;;10.63;4.82;;;19.50;99.90;;;;;;5098414;28;20423;-73
2022/05/21 00:39:34;;;;;;;13.13;5.93;;;19.50;99.90;;;;;;5087848;28;20034;-73
2022/05/21 00:42:07;;;;;;;8.90;4.88;;;19.40;99.90;;;;;;5095470;28;20488;-74
2022/05/21 00:44:33;;;;;;;14.00;5.38;;;19.40;99.90;;;;;;5098617;28;20024;-74
2022/05/21 00:46:59;;;;;;;12.57;5.70;;;19.40;99.90;;;;;;5099448;28;20055;-73
2022/05/21 00:49:36;;;;;;;10.32;5.32;;;19.40;99.90;;;;;;5097999;28;20040;-74
2022/05/21 00:52:07;;;;;;;13.18;6.00;;;19.30;99.90;;;;;;5099494;28;20024;-74
2022/05/21 00:54:48;;;;;;;17.13;6.15;;;19.30;99.90;;;;;;5099452;28;20024;-74
2022/05/21 00:57:30;;;;;;;11.15;5.43;;;19.30;99.90;;;;;;5098177;28;20028;-74
2022/05/21 01:00:10;;;;;;;9.38;5.05;;;19.30;99.90;;;;;;5097812;28;20039;-74
2022/05/21 01:02:44;;;;;;;14.88;5.50;;;19.30;99.90;;;;;;5098342;28;20384;-74
2022/05/21 01:05:12;;;;;;;10.40;5.97;;;19.20;99.90;;;;;;5098014;28;20032;-74
2022/05/21 01:07:41;;;;;;;11.20;5.63;;;19.20;99.90;;;;;;5099096;28;20111;-73
2022/05/21 01:10:08;;;;;;;11.73;5.78;;;19.20;99.90;;;;;;5099581;28;20016;-73
2022/05/21 01:12:38;;;;;;;11.07;5.35;;;19.20;99.90;;;;;;5098921;28;20819;-73
2022/05/21 01:15:10;;;;;;;13.63;4.97;;;19.20;99.90;;;;;;5096606;28;20016;-74
2022/05/21 01:17:37;;;;;;;9.55;6.38;;;19.20;99.90;;;;;;5094769;28;20042;-74
2022/05/21 01:20:08;;;;;;;13.65;5.85;;;19.20;99.90;;;;;;5097509;28;20024;-74
2022/05/21 01:22:41;;;;;;;;;;;19.20;99.90;;;;;;5099330;28;20074;-73
2022/05/21 01:25:07;;;;;;;10.57;5.18;;;19.20;99.90;;;;;;5097830;28;19904;-74
2022/05/21 01:27:34;;;;;;;13.80;5.55;;;19.10;99.90;;;;;;5097566;28;20020;-74
2022/05/21 01:30:03;;;;;;;12.05;5.38;;;19.10;99.90;;;;;;5098910;28;20016;-74
2022/05/21 01:32:29;;;;;;;14.35;5.82;;;19.10;99.90;;;;;;5094924;28;20027;-74
2022/05/21 01:34:56;;;;;;;10.90;6.15;;;19.00;99.90;;;;;;5089819;28;20028;-74
2022/05/21 01:37:22;;;;;;;16.27;6.43;;;19.00;99.90;;;;;;5097118;28;20026;-74
2022/05/21 01:39:48;;;;;;;15.30;6.10;;;19.00;99.90;;;;;;5084839;28;20028;-74
2022/05/21 01:42:14;;;;;;;10.82;5.18;;;19.00;99.90;;;;;;5096609;28;20506;-74
2022/05/21 01:44:40;;;;;;;10.57;5.78;;;19.00;99.90;;;;;;5098679;28;20020;-74
2022/05/21 01:47:11;;;;;;;14.60;6.53;;;18.90;99.90;;;;;;5098208;28;20093;-74
2022/05/21 01:49:38;;;;;;;17.95;6.07;;;18.90;99.90;;;;;;5096854;28;20031;-74
2022/05/21 01:52:05;;;;;;;18.15;6.20;;;18.80;99.90;;;;;;5097419;28;20024;-74
2022/05/21 01:54:32;;;;;;;15.80;5.65;;;18.90;99.90;;;;;;5097324;28;20092;-74
2022/05/21 01:56:58;;;;;;;12.65;5.93;;;18.90;99.90;;;;;;5097214;28;20496;-75
2022/05/21 01:59:24;;;;;;;13.45;6.03;;;18.80;99.90;;;;;;5098268;28;20047;-75
2022/05/21 02:01:51;;;;;;;9.07;5.43;;;18.70;99.90;;;;;;5098107;28;20019;-74
2022/05/21 02:04:18;;;;;;;16.35;6.57;;;18.70;99.90;;;;;;5096831;28;20062;-75
2022/05/21 02:06:44;;;;;;;16.60;6.72;;;18.70;99.90;;;;;;5098164;28;20023;-75
2022/05/21 02:09:10;;;;;;;11.07;5.68;;;18.70;99.90;;;;;;5096903;28;20035;-74
2022/05/21 02:11:37;;;;;;;11.23;5.63;;;18.70;99.90;;;;;;5098139;28;20413;-74
2022/05/21 02:14:04;;;;;;;14.93;5.82;;;18.70;99.90;;;;;;5096511;28;20024;-74
2022/05/21 02:16:30;;;;;;;9.50;5.85;;;18.70;99.90;;;;;;5098810;28;20039;-74
2022/05/21 02:18:57;;;;;;;14.05;6.80;;;18.70;99.90;;;;;;5076194;28;20029;-74
2022/05/21 02:21:23;;;;;;;17.80;6.68;;;18.60;99.90;;;;;;5077714;28;20031;-74
2022/05/21 02:23:49;;;;;;;11.75;6.72;;;18.60;99.90;;;;;;5092522;28;20040;-74
2022/05/21 02:26:17;;;;;;;15.70;7.28;;;18.60;99.90;;;;;;5097718;28;20028;-74
2022/05/21 02:28:43;;;;;;;15.02;5.82;;;18.50;99.90;;;;;;5097692;28;20020;-74
2022/05/21 02:31:09;;;;;;;11.02;5.90;;;18.50;99.90;;;;;;5078641;28;20027;-74
2022/05/21 02:33:34;;;;;;;9.93;5.70;;;18.40;99.90;;;;;;5097605;28;20024;-74
2022/05/21 02:36:00;;;;;;;16.10;6.32;;;18.40;99.90;;;;;;5097502;28;20023;-74
2022/05/21 02:41:12;;;;;;;9.57;6.07;;;18.30;99.90;;;;;;5087688;28;20521;-74
2022/05/21 02:43:39;;;;;;;12.73;5.70;;;18.20;99.90;;;;;;5097480;28;20044;-74
2022/05/21 02:46:05;;;;;;;10.07;6.15;;;18.20;99.90;;;;;;5096062;28;20048;-74
2022/05/21 02:48:31;;;;;;;11.70;6.07;;;18.20;99.90;;;;;;5097404;28;20032;-74
2022/05/21 02:50:57;;;;;;;8.93;6.32;;;18.10;99.90;;;;;;5095981;28;20028;-74
2022/05/21 02:53:23;;;;;;;11.48;5.90;;;18.10;99.90;;;;;;5097527;28;20020;-74
2022/05/21 02:55:51;;;;;;;9.23;5.60;;;18.00;99.90;;;;;;5097463;28;20027;-74
2022/05/21 02:58:17;;;;;;;11.68;6.07;;;18.00;99.90;;;;;;5095879;28;20028;-74
2022/05/21 03:00:44;;;;;;;17.60;6.20;;;17.90;99.90;;;;;;5095772;28;20111;-74
2022/05/21 03:03:11;;;;;;;15.77;7.07;;;17.90;99.90;;;;;;5097094;28;20024;-74
2022/05/21 03:05:37;;;;;;;12.48;6.88;;;17.90;99.90;;;;;;5097140;28;20450;-74
2022/05/21 03:10:52;;;;;;;9.63;5.93;;;17.80;99.90;;;;;;5097366;28;20035;-74
2022/05/21 03:13:18;;;;;;;10.90;6.15;;;17.80;99.90;;;;;;5096065;28;20032;-74
2022/05/21 03:15:45;;;;;;;13.35;7.10;;;17.70;99.90;;;;;;5086577;28;20004;-74
2022/05/21 03:18:12;;;;;;;10.70;6.78;;;17.70;99.90;;;;;;5097363;28;20063;-74
2022/05/21 03:20:38;;;;;;;14.68;7.10;;;17.60;99.90;;;;;;5095624;28;20440;-74
2022/05/21 03:23:05;;;;;;;14.02;7.05;;;17.60;99.90;;;;;;5097205;28;20025;-74
2022/05/21 03:25:32;;;;;;;13.40;7.10;;;17.50;99.90;;;;;;5096988;28;20467;-74
2022/05/21 03:27:58;;;;;;;13.25;7.20;;;17.50;99.90;;;;;;5097044;28;20032;-74
2022/05/21 03:30:27;;;;;;;11.45;6.82;;;17.50;99.90;;;;;;5095377;28;20017;-74
2022/05/21 03:32:53;;;;;;;14.15;6.05;;;17.40;99.90;;;;;;5096014;28;20025;-74
2022/05/21 03:35:20;;;;;;;14.85;6.80;;;17.40;99.90;;;;;;5096886;28;20024;-74
2022/05/21 03:37:46;;;;;;;16.02;7.82;;;17.40;99.90;;;;;;5095547;28;20020;-74
2022/05/21 03:40:19;;;;;;;11.27;7.10;;;17.40;99.90;;;;;;5083372;28;20021;-74
2022/05/21 03:42:45;;;;;;;8.32;6.65;;;17.40;99.90;;;;;;5100732;28;20472;-74
2022/05/21 03:45:12;;;;;;;15.73;7.70;;;17.40;99.90;;;;;;5100505;28;20024;-74
2022/05/21 03:47:41;;;;;;;12.40;6.45;;;17.30;99.90;;;;;;5099389;28;20333;-74
2022/05/21 03:50:11;;;;;;;17.00;6.32;;;17.20;99.90;;;;;;5099307;28;20047;-74
2022/05/21 03:52:37;;;;;;;20.75;7.43;;;17.20;99.90;;;;;;5099466;28;20047;-74
2022/05/21 03:55:03;;;;;;;11.40;6.22;;;17.20;99.90;;;;;;5100559;28;20016;-74
2022/05/21 03:57:29;;;;;;;12.93;7.32;;;17.20;99.90;;;;;;5100772;28;20024;-74
2022/05/21 03:59:57;;;;;;;13.35;6.50;;;17.10;99.90;;;;;;5100515;28;20039;-74
2022/05/21 04:02:23;;;;;;;14.38;7.00;;;17.10;99.90;;;;;;5099450;28;20028;-74
2022/05/21 04:04:49;;;;;;;10.27;6.75;;;17.10;99.90;;;;;;5098823;28;20024;-74
2022/05/21 04:07:15;;;;;;;16.58;7.78;;;17.10;99.90;;;;;;5100525;28;20548;-74
2022/05/21 04:09:42;;;;;;;10.65;6.35;;;17.00;99.90;;;;;;5098918;28;20083;-74
2022/05/21 04:12:09;;;;;;;18.17;7.25;;;17.00;99.90;;;;;;5100412;28;20028;-74
2022/05/21 04:14:35;;;;;;;14.57;7.05;;;16.90;99.90;;;;;;5100017;28;20051;-74
2022/05/21 04:17:03;;;;;;;9.95;7.22;;;17.00;99.90;;;;;;5080110;28;20032;-74
2022/05/21 04:19:31;;;;;;;14.75;7.53;;;17.00;99.90;;;;;;5098246;28;20027;-74
2022/05/21 04:21:57;;;;;;;13.13;6.68;;;16.90;99.90;;;;;;5099239;28;20065;-74
2022/05/21 04:24:23;;;;;;;11.57;7.30;;;16.90;99.90;;;;;;5099849;28;20103;-74
2022/05/21 04:26:50;;;;;;;12.43;8.48;;;16.90;99.90;;;;;;5100122;28;20024;-74
2022/05/21 04:29:16;;;;;;;12.38;7.35;;;16.90;99.90;;;;;;5098660;28;20380;-74
2022/05/21 04:31:43;;;;;;;15.80;7.80;;;16.90;99.90;;;;;;5100391;28;20074;-74
2022/05/21 04:34:09;;;;;;;20.60;6.82;;;16.90;99.90;;;;;;5099813;28;20023;-74
2022/05/21 04:36:36;;;;;;;15.63;7.65;;;16.90;99.90;;;;;;5099955;28;20099;-74
2022/05/21 04:39:02;;;;;;;16.85;7.95;;;16.80;99.90;;;;;;5092145;28;20029;-74
2022/05/21 04:41:28;;;;;;;13.30;7.63;;;16.90;99.90;;;;;;5091207;28;20064;-74
2022/05/21 04:43:54;;;;;;;14.40;8.32;;;16.90;99.90;;;;;;5099525;28;20027;-75
2022/05/21 04:46:22;;;;;;;17.10;8.48;;;16.90;99.90;;;;;;5098261;28;20428;-74
2022/05/21 04:48:48;;;;;;;16.65;8.10;;;16.90;99.90;;;;;;5099256;28;20016;-74
2022/05/21 04:51:15;;;;;;;17.30;9.05;;;16.90;99.90;;;;;;5099496;28;20024;-74
2022/05/21 04:53:41;;;;;;;18.70;9.65;;;16.90;99.90;;;;;;5096944;28;20024;-75
2022/05/21 04:56:07;;;;;;;13.95;7.50;;;16.90;99.90;;;;;;5098290;28;20031;-74
2022/05/21 04:58:33;;;;;;;15.55;7.55;;;17.00;99.90;;;;;;5097953;28;20115;-74
2022/05/21 05:01:02;;;;;;;8.30;7.15;;;17.10;99.90;;;;;;5099098;28;20024;-75
2022/05/21 05:03:28;;;;;;;19.98;8.48;;;17.10;99.90;;;;;;5097732;28;20024;-74
2022/05/21 05:05:54;;;;;;;15.55;8.38;;;17.20;99.90;;;;;;5097641;28;20030;-74
2022/05/21 05:08:21;;;;;;;17.55;8.57;;;17.20;99.90;;;;;;5097662;28;20054;-74
2022/05/21 05:10:48;;;;;;;21.33;9.27;;;17.30;99.90;;;;;;5098928;28;20069;-74
2022/05/21 05:13:15;;;;;;;12.20;8.10;;;17.30;99.90;;;;;;5099009;28;20160;-74
2022/05/21 05:15:46;;;;;;;12.05;7.78;;;17.40;99.90;;;;;;5089677;28;20077;-74
2022/05/21 05:18:19;;;;;;;17.27;7.85;;;17.50;99.90;;;;;;5086354;28;20028;-74
2022/05/21 05:20:46;;;;;;;20.42;8.32;;;17.60;99.90;;;;;;5098493;28;20116;-74
2022/05/21 05:23:12;;;;;;;22.15;8.82;;;17.70;99.90;;;;;;5098991;28;20028;-75
2022/05/21 05:25:39;;;;;;;21.63;9.48;;;17.70;99.90;;;;;;5097484;28;20032;-74
2022/05/21 05:28:16;;;;;;;15.43;8.90;;;17.70;99.90;;;;;;5097332;28;20118;-74
2022/05/21 05:30:42;;;;;;;13.65;8.57;;;17.90;99.90;;;;;;5098699;28;20024;-74
2022/05/21 05:33:08;;;;;;;16.50;8.68;;;18.00;99.90;;;;;;5097116;28;20027;-74
2022/05/21 05:35:34;;;;;;;19.00;9.55;;;18.00;99.90;;;;;;5083226;28;20023;-74
2022/05/21 05:38:05;;;;;;;13.75;7.80;;;18.20;99.90;;;;;;5098438;28;20482;-74
2022/05/21 05:40:32;;;;;;;19.67;7.85;;;18.30;99.90;;;;;;5084980;28;20063;-74
2022/05/21 05:42:58;;;;;;;22.48;8.52;;;18.40;99.90;;;;;;5098396;28;20118;-74
2022/05/21 05:45:24;;;;;;;13.73;7.20;;;18.40;99.90;;;;;;5098055;28;20536;-74
2022/05/21 05:47:50;;;;;;;18.25;7.90;;;18.50;99.90;;;;;;5096869;28;20165;-74
2022/05/21 05:50:15;;;;;;;17.45;7.95;;;18.60;99.90;;;;;;5097883;28;20035;-75
2022/05/21 05:52:41;;;;;;;13.38;6.97;;;18.70;99.90;;;;;;5098275;28;20020;-74
2022/05/21 05:55:08;;;;;;;14.50;7.32;;;18.80;99.90;;;;;;5096837;28;20050;-75
2022/05/21 05:57:33;;;;;;;14.93;8.27;;;18.80;99.90;;;;;;5096806;28;20030;-74
2022/05/21 05:59:59;;;;;;;18.90;7.57;;;19.00;99.90;;;;;;5098079;28;20391;-75
2022/05/21 06:05:24;;;;;;;17.63;6.95;;;19.10;99.90;;;;;;5097674;28;20043;-74
2022/05/21 06:07:57;;;;;;;12.68;7.00;;;19.30;99.90;;;;;;5097672;28;20369;-75
2022/05/21 06:10:28;;;;;;;12.43;6.57;;;19.40;99.90;;;;;;5098065;28;20031;-74
2022/05/21 06:12:55;;;;;;;11.65;6.18;;;19.50;99.90;;;;;;5076377;28;20119;-75
2022/05/21 06:15:21;;;;;;;19.35;7.03;;;19.50;99.90;;;;;;5092816;28;20028;-74
2022/05/21 06:17:49;;;;;;;12.35;6.97;;;19.60;99.90;;;;;;5081566;28;20028;-75
2022/05/21 06:20:17;;;;;;;15.93;6.68;;;19.70;99.90;;;;;;5096754;28;20127;-75
2022/05/21 06:22:44;;;;;;;16.17;6.80;;;19.80;99.90;;;;;;5096532;28;20024;-75
2022/05/21 06:25:16;;;;;;;18.38;6.75;;;19.80;99.90;;;;;;5097874;28;20035;-75
2022/05/21 06:27:50;;;;;;;13.60;6.53;;;19.90;99.90;;;;;;5097644;28;20026;-74
2022/05/21 06:30:17;;;;;;;14.98;6.60;;;20.10;99.90;;;;;;5097480;28;20103;-74
2022/05/21 06:32:44;;;;;;;9.43;5.40;;;20.20;99.90;;;;;;5096199;28;20020;-74
2022/05/21 06:35:11;;;;;;;21.92;6.78;;;20.20;99.90;;;;;;5097043;28;20104;-75
2022/05/21 06:37:37;;;;;;;15.07;5.90;;;20.30;99.90;;;;;;5095999;28;20431;-75
2022/05/21 06:40:05;;;;;;;10.77;5.95;;;20.40;99.90;;;;;;5083878;28;20070;-74
2022/05/21 06:42:31;;;;;;;10.05;5.07;;;20.50;99.90;;;;;;5096099;28;20024;-74
2022/05/21 06:44:57;;;;;;;13.35;5.88;;;20.70;99.90;;;;;;5097158;28;20035;-74
2022/05/21 06:47:23;;;;;;;10.00;5.55;;;20.70;99.90;;;;;;5095734;28;20048;-74
2022/05/21 06:49:51;;;;;;;9.98;4.70;;;20.90;99.90;;;;;;5095772;28;20028;-74
2022/05/21 06:52:17;;;;;;;10.88;5.82;;;20.90;99.90;;;;;;5097406;28;20034;-74
2022/05/21 06:54:43;;;;;;;15.18;4.90;;;21.00;99.90;;;;;;5097355;28;20008;-74
2022/05/21 06:57:10;;;;;;;14.98;5.00;;;21.10;99.90;;;;;;5097255;28;20076;-74
2022/05/21 06:59:36;;;;;;;10.63;4.70;;;21.20;99.90;;;;;;5095463;28;20031;-74
2022/05/21 07:02:02;;;;;;;9.20;4.63;;;21.30;99.90;;;;;;5097184;28;20024;-74
2022/05/21 07:09:57;;;;;;;10.27;4.72;;;21.70;99.90;;;;;;5097236;28;20039;-74
2022/05/21 07:12:23;;;;;;;12.25;4.65;;;21.70;99.90;;;;;;5096988;28;20047;-75
2022/05/21 07:14:49;;;;;;;7.20;4.60;;;21.80;99.90;;;;;;5094948;28;20521;-75
2022/05/21 07:17:18;;;;;;;8.80;3.92;;;22.00;99.90;;;;;;5098575;28;20021;-74
2022/05/21 07:19:44;;;;;;;8.15;4.68;;;22.00;99.90;;;;;;5103582;28;20028;-75
2022/05/21 07:22:10;;;;;;;7.25;4.38;;;22.10;99.90;;;;;;5103500;28;20031;-74
2022/05/21 07:24:40;;;;;;;10.35;4.20;;;22.10;99.90;;;;;;5103628;28;20024;-75
2022/05/21 07:27:06;;;;;;;9.03;3.40;;;22.20;99.90;;;;;;5101884;28;20077;-74
2022/05/21 07:29:31;;;;;;;9.52;4.10;;;22.20;99.90;;;;;;5082943;28;20028;-75
2022/05/21 07:31:57;;;;;;;6.15;4.00;;;22.30;99.90;;;;;;5084413;28;20028;-75
2022/05/21 07:34:23;;;;;;;7.53;3.95;;;22.40;99.90;;;;;;5083207;28;20017;-75
2022/05/21 07:36:49;;;;;;;10.45;3.95;;;22.50;99.90;;;;;;5086660;28;20020;-75
2022/05/21 07:39:15;;;;;;;7.70;4.00;;;22.60;99.90;;;;;;5095771;28;20454;-75
2022/05/21 07:41:41;;;;;;;9.75;3.70;;;22.70;99.90;;;;;;5098335;28;20114;-75
2022/05/21 07:44:07;;;;;;;7.03;3.45;;;22.80;99.90;;;;;;5103518;28;20485;-74
2022/05/21 07:46:33;;;;;;;7.57;3.78;;;22.90;99.90;;;;;;5103364;28;20144;-75
2022/05/21 07:48:59;;;;;;;8.02;3.92;;;23.00;99.90;;;;;;5103232;28;20026;-75
2022/05/21 07:51:25;;;;;;;10.32;4.22;;;23.10;99.90;;;;;;5089352;28;20024;-75
2022/05/21 07:53:51;;;;;;;9.15;3.72;;;23.10;99.90;;;;;;5090543;28;20023;-74
2022/05/21 07:56:17;;;;;;;7.68;3.30;;;23.20;99.90;;;;;;5103513;28;20028;-76
2022/05/21 07:58:43;;;;;;;7.82;3.42;;;23.20;99.90;;;;;;5103389;28;20054;-75
2022/05/21 08:01:11;;;;;;;8.60;3.30;;;23.40;99.90;;;;;;5103069;28;20020;-73
2022/05/21 08:03:38;;;;;;;7.72;3.83;;;23.50;99.90;;;;;;5103101;28;20051;-75
2022/05/21 08:06:04;;;;;;;9.15;3.67;;;23.50;99.90;;;;;;5103216;28;20040;-75
2022/05/21 08:08:30;;;;;;;10.15;3.30;;;23.60;99.90;;;;;;5095342;28;20027;-74
2022/05/21 08:10:56;;;;;;;6.95;2.88;;;23.60;99.90;;;;;;5082565;28;20074;-75
2022/05/21 08:13:22;;;;;;;9.25;3.95;;;23.60;99.90;;;;;;5082225;28;20021;-74
2022/05/21 08:15:48;;;;;;;11.65;3.78;;;23.60;99.90;;;;;;5088032;28;20024;-74
2022/05/21 08:18:14;;;;;;;6.13;3.65;;;23.80;99.90;;;;;;5091984;28;20024;-75
2022/05/21 08:20:40;;;;;;;9.75;3.45;;;24.00;99.90;;;;;;5101662;28;20395;-73
2022/05/21 08:28:39;;;;;;;7.25;3.95;;;24.20;99.90;;;;;;5100585;28;20043;-73
2022/05/21 08:31:05;;;;;;;5.35;3.20;;;24.40;99.90;;;;;;5098611;28;20488;-74
2022/05/21 08:33:31;;;;;;;9.32;4.13;;;24.50;99.90;;;;;;5099643;28;20024;-73
2022/05/21 08:35:57;;;;;;;7.35;3.40;;;24.60;99.90;;;;;;5100040;28;20511;-73
2022/05/21 08:38:23;;;;;;;7.25;3.00;;;24.70;99.90;;;;;;5097670;28;20028;-75
2022/05/21 08:40:58;;;;;;;7.18;3.70;;;24.70;99.90;;;;;;5086382;28;20050;-74
2022/05/21 08:43:35;;;;;;;7.85;2.72;;;24.80;99.90;;;;;;5098364;28;20471;-74
2022/05/21 08:46:20;;;;;;;8.45;2.88;;;24.90;99.90;;;;;;5090849;28;20611;-75
2022/05/21 08:49:05;;;;;;;6.45;3.08;;;25.00;99.90;;;;;;5099285;28;20060;-75
2022/05/21 08:51:49;;;;;;;9.52;3.25;;;25.10;99.90;;;;;;5099904;28;20112;-74
2022/05/21 08:54:23;;;;;;;11.85;3.28;;;25.20;99.90;;;;;;5096603;28;20111;-74
2022/05/21 08:56:51;;;;;;;14.80;3.30;;;25.20;99.90;;;;;;5098059;28;20488;-74
2022/05/21 08:59:21;;;;;;;10.40;3.22;;;25.20;99.90;;;;;;5098373;28;20028;-73
2022/05/21 09:01:47;;;;;;;7.72;3.20;;;25.30;99.90;;;;;;5097930;28;20071;-74
2022/05/21 09:04:14;;;;;;;9.75;2.80;;;25.30;99.90;;;;;;5099089;28;20031;-74
2022/05/21 09:06:52;;;;;;;12.40;3.25;;;25.40;99.90;;;;;;5098558;28;20027;-74
2022/05/21 09:09:35;;;;;;;8.02;2.90;;;25.50;99.90;;;;;;5099386;28;20016;-73
2022/05/21 09:12:18;;;;;;;14.98;3.22;;;25.60;99.90;;;;;;5098187;28;20020;-74
2022/05/21 09:14:47;;;;;;;10.23;3.25;;;25.70;99.90;;;;;;5097717;28;20016;-73
2022/05/21 09:17:25;;;;;;;8.45;2.88;;;25.80;99.90;;;;;;5085438;28;20016;-74
2022/05/21 09:19:55;;;;;;;7.55;2.55;;;25.90;99.90;;;;;;5099208;28;20030;-74
2022/05/21 09:22:22;;;;;;;5.72;3.10;;;26.00;99.90;;;;;;5098915;28;20115;-74
2022/05/21 09:24:56;;;;;;;7.38;2.33;;;26.10;99.90;;;;;;5099144;28;20107;-74
2022/05/21 09:27:28;;;;;;;6.10;2.70;;;26.10;99.90;;;;;;5097401;28;20028;-74
2022/05/21 09:30:15;;;;;;;8.80;3.75;;;26.20;99.90;;;;;;5098908;28;20074;-74
2022/05/21 09:32:46;;;;;;;10.27;2.70;;;26.40;99.90;;;;;;5088390;28;20035;-75
2022/05/21 09:35:50;;;;;;;7.38;2.63;;;26.40;99.90;;;;;;5098421;28;20020;-74
2022/05/21 09:38:28;;;;;;;11.02;2.75;;;26.60;99.90;;;;;;5095246;28;20032;-75
2022/05/21 09:41:09;;;;;;;6.53;2.58;;;26.60;99.90;;;;;;5072855;28;20035;-74
2022/05/21 09:46:31;;;;;;;6.13;2.67;;;26.80;99.90;;;;;;5098429;28;20428;-75
2022/05/21 09:49:21;;;;;;;7.68;3.53;;;26.90;99.90;;;;;;5098279;28;20107;-75
2022/05/21 09:52:00;;;;;;;11.30;2.83;;;27.00;98.80;;;;;;5097067;28;20024;-74
2022/05/21 09:54:40;;;;;;;7.28;2.35;;;27.10;99.20;;;;;;5097089;28;20021;-73
2022/05/21 09:57:21;;;;;;;4.85;3.13;;;27.10;98.90;;;;;;5098664;28;20027;-74
2022/05/21 10:00:22;;;;;;;7.00;2.75;;;27.20;99.70;;;;;;5096823;28;20035;-74
2022/05/21 10:02:55;;;;;;;8.23;3.30;;;27.20;98.10;;;;;;5096781;28;20031;-73
2022/05/21 10:05:32;;;;;;;7.20;3.05;;;27.20;98.00;;;;;;5098175;28;20030;-74
2022/05/21 10:11:25;;;;;;;7.80;2.90;;;27.40;98.00;;;;;;5097983;28;20028;-74
2022/05/21 10:14:12;;;;;;;8.07;2.60;;;27.60;97.90;;;;;;5097960;28;20027;-74
2022/05/21 10:16:57;;;;;;;6.35;2.58;;;27.40;97.90;;;;;;5080786;28;20028;-74
2022/05/21 10:19:46;;;;;;;13.52;3.45;;;27.50;97.20;;;;;;5076001;28;20032;-75
2022/05/21 10:22:44;;;;;;;9.75;2.85;;;27.60;98.00;;;;;;5077483;28;20349;-75
2022/05/21 10:25:15;;;;;;;5.53;2.80;;;27.60;96.20;;;;;;5063461;28;20040;-75
2022/05/21 10:27:53;;;;;;;10.77;2.88;;;27.70;97.10;;;;;;5097676;28;20052;-75
2022/05/21 10:30:38;;;;;;;10.02;2.97;;;27.80;96.80;;;;;;5096273;28;20504;-74
2022/05/21 10:33:24;;;;;;;7.63;2.55;;;27.80;97.00;;;;;;5096419;28;20028;-74
2022/05/21 10:36:04;;;;;;;6.00;2.15;;;27.90;96.00;;;;;;5096567;28;20054;-74
2022/05/21 10:39:08;;;;;;;11.75;3.53;;;28.00;96.70;;;;;;5094709;28;20024;-74
2022/05/21 10:42:01;;;;;;;12.32;2.95;;;28.00;96.60;;;;;;5091002;28;20028;-74
2022/05/21 10:45:13;;;;;;;10.43;2.92;;;28.10;96.10;;;;;;5097624;28;20472;-73
2022/05/21 10:48:01;;;;;;;7.20;2.72;;;28.20;95.40;;;;;;5074145;28;20060;-73
2022/05/21 10:50:46;;;;;;;11.40;3.00;;;28.40;94.70;;;;;;5096258;28;20031;-74
2022/05/21 10:53:20;;;;;;;9.27;3.25;;;28.50;95.30;;;;;;5104256;28;20157;-74
2022/05/21 10:55:52;;;;;;;5.68;2.17;;;28.20;94.80;;;;;;5097466;28;20016;-74
2022/05/21 10:58:36;;;;;;;5.55;2.88;;;28.30;95.60;;;;;;5097352;28;20028;-75
2022/05/21 11:01:15;;;;;;;13.65;3.65;;;28.40;94.50;;;;;;5096056;28;20024;-75
2022/05/21 11:04:01;;;;;;;8.13;2.75;;;28.40;94.90;;;;;;5095797;28;20024;-75
2022/05/21 11:06:51;;;;;;;9.80;3.60;;;28.50;95.10;;;;;;5095724;28;20020;-75
2022/05/21 11:09:29;;;;;;;7.95;2.88;;;28.60;94.60;;;;;;5097271;28;20078;-75
2022/05/21 11:12:05;;;;;;;5.93;2.90;;;28.60;95.20;;;;;;5097593;28;20032;-75
2022/05/21 11:14:38;;;;;;;12.38;3.20;;;28.80;95.20;;;;;;5097018;28;20035;-74
2022/05/21 11:17:27;;;;;;;6.97;2.92;;;29.00;94.10;;;;;;5090209;28;20035;-75
2022/05/21 11:20:18;;;;;;;9.48;2.92;;;29.10;93.10;;;;;;5095872;28;20032;-75
2022/05/21 11:23:04;;;;;;;11.05;3.05;;;29.10;94.00;;;;;;5095664;28;20024;-74
2022/05/21 11:25:52;;;;;;;10.88;2.97;;;29.00;93.80;;;;;;5097199;28;20035;-74
2022/05/21 11:28:40;;;;;;;12.88;2.95;;;29.00;94.60;;;;;;5097111;28;20115;-73
2022/05/21 11:31:17;;;;;;;9.13;2.45;;;29.00;93.70;;;;;;5091849;28;20101;-73
2022/05/21 11:39:20;;;;;;;12.57;5.13;;;29.30;93.90;;;;;;5088488;28;20114;-75
2022/05/21 11:42:08;;;;;;;11.45;3.05;;;29.30;93.20;;;;;;5091843;28;20499;-73
2022/05/21 11:45:13;;;;;;;7.80;3.45;;;29.40;94.00;;;;;;5095392;28;20361;-74
2022/05/21 11:47:49;;;;;;;9.32;3.03;;;29.40;93.10;;;;;;5095426;28;20059;-74
2022/05/21 11:50:22;;;;;;;10.75;3.35;;;29.50;92.90;;;;;;5095432;28;20479;-74
2022/05/21 11:53:05;;;;;;;8.38;2.80;;;29.40;92.70;;;;;;5095476;28;20122;-75
2022/05/21 11:56:10;;;;;;;10.38;2.88;;;29.50;92.90;;;;;;5096925;28;20455;-74
2022/05/21 11:58:58;;;;;;;11.27;3.30;;;29.70;91.90;;;;;;5097019;28;20044;-74
2022/05/21 12:01:39;;;;;;;8.50;2.78;;;29.90;92.70;;;;;;5095436;28;20043;-74
2022/05/21 12:04:07;;;;;;;7.97;2.63;;;30.00;91.80;;;;;;5099278;28;20023;-74
2022/05/21 12:06:41;;;;;;;12.23;2.88;;;30.00;91.70;;;;;;5095998;28;20032;-75
2022/05/21 12:09:31;;;;;;;8.18;2.67;;;30.10;92.00;;;;;;5092641;28;20024;-75
2022/05/21 12:12:21;;;;;;;8.17;2.97;;;30.20;91.30;;;;;;5100553;28;20445;-75
2022/05/21 12:14:55;;;;;;;10.25;2.67;;;30.30;91.30;;;;;;5081978;28;20073;-74
2022/05/21 12:17:52;;;;;;;7.28;2.58;;;30.40;91.10;;;;;;5094647;28;20455;-74
2022/05/21 12:20:48;;;;;;;8.25;3.47;;;30.40;91.00;;;;;;5099964;28;20110;-77
2022/05/21 12:23:35;;;;;;;8.75;3.00;;;30.40;90.90;;;;;;5099148;28;20028;-74
2022/05/21 12:26:13;;;;;;;9.50;3.47;;;30.50;90.30;;;;;;5099886;28;20028;-73
2022/05/21 12:29:03;;;;;;;9.77;2.45;;;30.40;90.40;;;;;;5100055;28;20031;-74
2022/05/21 12:31:38;;;;;;;12.13;3.08;;;30.50;91.20;;;;;;5100230;28;20031;-75
2022/05/21 12:34:12;;;;;;;7.18;2.75;;;30.70;90.70;;;;;;5098291;28;20020;-74
2022/05/21 12:36:57;;;;;;;12.80;2.80;;;30.80;90.70;;;;;;5099958;28;20442;-74
2022/05/21 12:39:42;;;;;;;9.48;3.35;;;31.10;91.30;;;;;;5090621;28;20158;-74
2022/05/21 12:42:35;;;;;;;9.70;3.13;;;31.40;90.90;;;;;;5096737;28;20028;-74
2022/05/21 12:45:02;;;;;;;11.10;3.28;;;31.50;90.70;;;;;;5099405;28;20016;-75
2022/05/21 12:47:37;;;;;;;9.35;3.00;;;31.50;89.80;;;;;;5098425;28;20035;-75
2022/05/21 12:50:20;;;;;;;8.85;3.03;;;31.50;90.00;;;;;;5097865;28;20028;-75
2022/05/21 12:52:49;;;;;;;5.88;2.40;;;31.30;90.60;;;;;;5093019;28;20025;-74
2022/05/21 12:55:31;;;;;;;12.73;3.13;;;31.10;89.60;;;;;;5099541;28;20012;-75
2022/05/21 12:58:09;;;;;;;6.53;2.50;;;31.00;90.50;;;;;;5099407;28;20129;-74
2022/05/21 13:00:37;;;;;;;10.27;2.90;;;30.90;90.30;;;;;;5098418;28;20028;-75
2022/05/21 13:03:10;;;;;;;7.45;3.03;;;31.00;90.50;;;;;;5098131;28;20032;-74
2022/05/21 13:06:03;;;;;;;8.60;2.60;;;31.30;90.00;;;;;;5099502;28;20028;-74
2022/05/21 13:08:31;;;;;;;11.98;2.78;;;31.20;88.60;;;;;;5097878;28;20066;-74
2022/05/21 13:11:06;;;;;;;6.70;2.65;;;31.30;90.90;;;;;;5099122;28;20009;-74
2022/05/21 13:13:38;;;;;;;15.05;4.00;;;31.40;88.70;;;;;;5097205;28;20093;-74
2022/05/21 13:16:08;;;;;;;6.47;2.95;;;31.00;90.60;;;;;;5086745;28;20021;-75
2022/05/21 13:18:51;;;;;;;9.52;3.08;;;31.20;91.60;;;;;;5089381;28;20028;-75
2022/05/21 13:21:35;;;;;;;11.80;3.33;;;31.30;90.30;;;;;;5099026;28;20055;-75
2022/05/21 13:24:20;;;;;;;9.43;3.00;;;31.40;89.90;;;;;;5097884;28;20028;-75
2022/05/21 13:27:02;;;;;;;9.18;2.40;;;31.60;90.60;;;;;;5099067;28;20481;-75
2022/05/21 13:29:29;;;;;;;8.70;2.72;;;32.00;87.70;;;;;;5097589;28;20028;-75
2022/05/21 13:31:56;;;;;;;7.65;2.83;;;32.10;85.00;;;;;;5099162;28;20039;-75
2022/05/21 13:34:34;;;;;;;10.35;2.90;;;32.00;86.70;;;;;;5098657;28;20031;-74